Nearby METAR Reports

 

KEWB - New Bedford, Massachusetts, USA
Distance from station: ESE 9mi, 15km
Updated: Fri, 27-May-2022 6:53am EDT
Mist, Overcast
Mist, Overcast
 Wind from SSW
Wind: SSW 8 mph , 13 km/h
Temperature: 63°F , 17°C
Dew Point: 63°F , 17°C
Humidity: 100%
Barometer: 30.03 inHg , 1016.9 hPa
Summary: Mist
Clouds: Overcast
Visibility: 2 1/2 miles , 4 km
Cloud details: Overcast 300 ft
2022/05/27 10:53 KEWB 271053Z 20007KT 2 1/2SM BR OVC003 17/17 A3003 RMK AO2 RAB24E35 SLP167 P0000 T01720167
KTAN - Taunton, Massachusetts, USA
Distance from station: NNE 11mi, 18km
Updated: Fri, 27-May-2022 7:22am EDT
Mist, Overcast
Mist, Overcast
 Wind from SSW
Wind: SSW 8 mph , 13 km/h
Temperature: 64°F , 18°C
Dew Point: 63°F , 17°C
Humidity: 94%
Barometer: 30.01 inHg , 1016.3 hPa
Summary: Mist
Clouds: Overcast
Visibility: 2 1/2 miles , 4 km
Cloud details: Overcast 400 ft
2022/05/27 11:22 KTAN 271122Z AUTO 20007KT 2 1/2SM BR OVC004 18/17 A3001 RMK AO2 T01830172
 
KPVD - Providence/Green, Rhode Island, USA
Distance from station: W 16mi, 26km
Updated: Fri, 27-May-2022 6:51am EDT
Mist, Overcast
Mist, Overcast
 Wind from S
Wind: S 8 mph , 13 km/h
Temperature: 64°F , 18°C
Dew Point: 63°F , 17°C
Humidity: 94%
Barometer: 30.02 inHg , 1016.6 hPa
Summary: Mist
Clouds: Overcast
Visibility: 2 1/2 miles , 4 km
Cloud details: Overcast 400 ft
2022/05/27 10:51 KPVD 271051Z 18007KT 2 1/2SM BR OVC004 18/17 A3002 RMK AO2 SLP166 T01780167
KUUU - Newport, Rhode Island, USA
Distance from station: SSW 16mi, 27km
Updated: Fri, 27-May-2022 7:27am EDT
Mist, Overcast
Mist, Overcast
 Wind from S
Wind: S 10 mph , 17 km/h, Gust: 23 mph , 37 km/h
Temperature: 63°F , 17°C
Dew Point: 63°F , 17°C
Humidity: 100%
Barometer: 30.02 inHg , 1016.6 hPa
Summary: Mist
Clouds: Overcast
Visibility: 2 1/2 miles , 4 km
Cloud details: Overcast 200 ft
2022/05/27 11:27 KUUU 271127Z AUTO 19009G20KT 2 1/2SM BR OVC002 17/17 A3002 RMK AO2 T01720172
 
KOQU - N. Kingston/Quon, Rhode Island, USA
Distance from station: WSW 18mi, 29km
Updated: Thu, 26-May-2022 10:50pm EDT
NOT Current
Mostly cloudy
Mostly cloudy
 Wind from WSW
Wind: WSW 12 mph , 19 km/h
Temperature: 61°F , 16°C
Dew Point: 55°F , 13°C
Humidity: 83%
Barometer: 30.14 inHg , 1020.7 hPa
Clouds: Mostly cloudy
Visibility: 10 miles , 16 km
Cloud details: Few Clouds 3000 ft
Mostly cloudy 20000 ft
2022/05/27 02:50 KOQU 270250Z 25010KT 10SM FEW030 BKN200 16/13 A3014 RMK LAST
KPYM - Plymouth, Massachusetts, USA
Distance from station: ENE 23mi, 37km
Updated: Fri, 27-May-2022 6:52am EDT
Mist, Overcast
Mist, Overcast
 Wind from SSW
Wind: SSW 9 mph , 15 km/h
Temperature: 64°F , 18°C
Dew Point: 63°F , 17°C
Humidity: 94%
Barometer: 30.02 inHg , 1016.6 hPa
Summary: Mist
Clouds: Overcast
Visibility: 4 miles , 6 km
Cloud details: Overcast 400 ft
2022/05/27 10:52 KPYM 271052Z AUTO 21008KT 4SM BR OVC004 18/17 A3002 RMK AO2 SLP165 T01780167
 
KSFZ - Pawtucket, Rhode Island, USA
Distance from station: WNW 23mi, 38km
Updated: Fri, 27-May-2022 7:15am EDT
Mist, Overcast
Mist, Overcast
 Wind from calm
Wind: Calm
Temperature: 63°F , 17°C
Dew Point: 63°F , 17°C
Humidity: 100%
Barometer: 30.02 inHg , 1016.6 hPa
Summary: Mist
Clouds: Overcast
Visibility: 3/4 mile , 1.2 km
Cloud details: Overcast 300 ft
2022/05/27 11:15 KSFZ 271115Z AUTO 00000KT 3/4SM BR OVC003 17/17 A3002 RMK AO2 $
KOWD - Norwood, Massachusetts, USA
Distance from station: N 31mi, 50km
Updated: Fri, 27-May-2022 6:53am EDT
Overcast
Overcast
 Wind from S
Wind: S 8 mph , 13 km/h
Temperature: 66°F , 19°C
Dew Point: 63°F , 17°C
Humidity: 88%
Barometer: 30.00 inHg , 1015.9 hPa
Clouds: Overcast
Visibility: 10 miles , 16 km
Cloud details: Overcast 700 ft
2022/05/27 10:53 KOWD 271053Z 18007KT 10SM OVC007 19/17 A3000 RMK AO2 CIG 006V011 SLP158 T01940167
 
KFMH - Falmouth/Otis Ab, Massachusetts, USA
Distance from station: ESE 32mi, 51km
Updated: Fri, 27-May-2022 6:45am EDT
Mist, Overcast
Mist, Overcast
 Wind from SSW
Wind: SSW 15 mph , 24 km/h
Temperature: 63°F , 17°C
Dew Point: 63°F , 17°C
Humidity: 100%
Barometer: 30.04 inHg , 1017.3 hPa
Summary: Mist
Clouds: Overcast
Visibility: 2 miles , 3 km
Cloud details: Overcast 700 ft
2022/05/27 10:45 KFMH 271045Z 20013KT 2SM BR OVC007 17/17 A3004
KMQE - East Milton, Massachusetts, USA
Distance from station: N 33mi, 53km
Updated: Thu, 01-Jul-2021 9:51am EDT
NOT Current

 Wind from WNW
Wind: WNW 9 mph , 15 km/h
Temperature: 75°F , 24°C
Dew Point: 70°F , 21°C
Humidity: 83%
Barometer: 29.86 inHg , 1011.2 hPa
2021/07/01 13:51 KMQE 011351Z AUTO 30008KT 24/21 A2986 RMK AO1 SLP116 T02440206
 
KGHG - Marshfield, Massachusetts, USA
Distance from station: NE 34mi, 55km
Updated: Fri, 27-May-2022 7:15am EDT
Overcast
Overcast
 Wind from SW
Wind: SW 9 mph , 15 km/h, Gust: 17 mph , 28 km/h
Temperature: 66°F , 19°C
Dew Point: 63°F , 17°C
Humidity: 88%
Barometer: 30.01 inHg , 1016.3 hPa
Clouds: Overcast
Visibility: 10 miles , 16 km
Cloud details: Overcast 500 ft
2022/05/27 11:15 KGHG 271115Z AUTO 22008G15KT 190V250 10SM OVC005 19/17 A3001 RMK AO2
KMVY - Marthas Vineyard, Massachusetts, USA
Distance from station: SE 35mi, 56km
Updated: Fri, 27-May-2022 7:12am EDT
Mist, Overcast
Mist, Overcast
 Wind from SW
Wind: SW 14 mph , 22 km/h, Gust: 20 mph , 31 km/h
Temperature: 63°F , 17°C
Dew Point: 61°F , 16°C
Humidity: 94%
Barometer: 30.04 inHg , 1017.3 hPa
Summary: Mist
Clouds: Overcast
Visibility: 3 miles , 5 km
Cloud details: Mostly cloudy 400 ft
Overcast 1100 ft
2022/05/27 11:12 KMVY 271112Z 22012G17KT 3SM BR BKN004 OVC011 17/16 A3004 RMK AO2 CIG 003V007 T01670161
 
KBOS - Boston, Massachusetts, USA
Distance from station: N 44mi, 71km
Updated: Fri, 27-May-2022 7:11am EDT
Mostly cloudy
Mostly cloudy
 Wind from SW
Wind: SW 13 mph , 20 km/h
Temperature: 68°F , 20°C
Dew Point: 63°F , 17°C
Humidity: 83%
Barometer: 29.99 inHg , 1015.6 hPa
Clouds: Mostly cloudy
Visibility: 10 miles , 16 km
Cloud details: Mostly cloudy 1100 ft
Mostly cloudy 4800 ft
Mostly cloudy 25000 ft
2022/05/27 11:11 KBOS 271111Z 22011KT 10SM BKN011 BKN048 BKN250 20/17 A2999 RMK AO2 T02000172 $
KHYA - Hyannis, Massachusetts, USA
Distance from station: E 44mi, 71km
Updated: Fri, 27-May-2022 7:25am EDT
Light rain, Mist, Overcast
Light rain, Mist, Overcast
 Wind from SSW
Wind: SSW 14 mph , 22 km/h, Gust: 23 mph , 37 km/h
Temperature: 63°F , 17°C
Dew Point: 61°F , 16°C
Humidity: 94%
Barometer: 30.02 inHg , 1016.6 hPa
Summary: Light rain, Mist
Clouds: Overcast
Visibility: 1 mile , 2 km
Cloud details: Mostly cloudy 500 ft
Overcast 1300 ft
2022/05/27 11:25 KHYA 271125Z 21012G20KT 1SM -RA BR BKN005 OVC013 17/16 A3002 RMK AO2 RAB21 P0000 T01720156
 
KWST - Westerly, Rhode Island, USA
Distance from station: SW 44mi, 71km
Updated: Fri, 27-May-2022 7:29am EDT
Mist, Overcast
Mist, Overcast
 Wind from S
Wind: S 13 mph , 20 km/h
Temperature: 63°F , 17°C
Dew Point: 61°F , 16°C
Humidity: 94%
Barometer: 30.01 inHg , 1016.3 hPa
Summary: Mist
Clouds: Overcast
Visibility: 1 3/4 miles , 2.8 km
Cloud details: Overcast 200 ft
2022/05/27 11:29 KWST 271129Z AUTO 19011KT 1 3/4SM BR OVC002 17/16 A3001 RMK AO2 T01670161
KBID - Block Island, Rhode Island, USA
Distance from station: SSW 46mi, 74km
Updated: Fri, 27-May-2022 7:17am EDT
Mist, Overcast
Mist, Overcast
 Wind from SSW
Wind: SSW 13 mph , 20 km/h
Temperature: 59°F , 15°C
Dew Point: 59°F , 15°C
Humidity: 100%
Barometer: 30.03 inHg , 1016.9 hPa
Summary: Mist
Clouds: Overcast
Visibility: 4 miles , 6 km
Cloud details: Overcast 200 ft
2022/05/27 11:17 KBID 271117Z AUTO 20011KT 4SM BR OVC002 15/15 A3003 RMK AO2 RAE05 P0000